Inicio METAR Ruta Wind Satelite

Informe Meteorológico

Fecha: 2021/09/21 15:59:13 Local
2021.09.21 20:59 UTC


Operación:
SKPD 212000Z 27008KT 9000 DZ SCT020TCU 24/22 Q1008 RMK TCUS/SW/W A2979 =